岡山グライダークラブ活動状況掲示板

岡山グライダークラブ
岡山市浦安南町639-1 岡南飛行場
 使用機:シャイベ式 SF25C型 ファルケ   JA2330
      ヴァレンティン式17E型 タイフーン  JA2342
 練習日:毎日曜日  クラブルーム:電話 086-265-1810
この掲示板は岡山グライダークラブの活動状況をお知らせする掲示板です。
!!!この掲示板は投稿規制をしています。!!!
クラブ関連各種情報は 岡山グライダークラブクラブルーム      を       .
  ブリーフイング情報は  岡山グライダークラブブリーフィングルーム  をご覧下さい。 .
※写真はクリックすると拡大して見ることが出来ます。
岡南飛行場へのアクセス等は 岡南飛行場管理事務所 をご覧ください。
クラブの ホームページ ができました。

!!!最近のコロナ感染拡大に伴い、当面の間、見学者等の受入を中止しております。再開まで今しばらくお待ちください!!!

 
05月16日
by OGC at 2021/5/16(日) 15:03:14 No.20210516145314  削除コメント
1243 x 871 x 34,819バイト  <この画像は大きいので別画面で表示します>
No.1

05月16日
本日のリモート参加者
  会員      12名
  その他      0名


@本日の様子






METAR
RJBK 160000Z 09007KT 15KM -SHRA FEW008ST SCT025CU BKN050SC 20/19 Q1011 A2986
RJOB 160000Z 10007KT 3000 -SHRA BR BCFG FEW000 SCT002 BKN003 19/18 Q1012
RJOT 160000Z VRB02KT 4000 -SHRA BR FEW000 SCT002 BKN005 19/19 Q1011
RJOA 160000Z VRB02KT 1600 R10/0750VP1800D BCFG BR FEW000 SCT002 BKN010 19/18 Q1012
TAF
RJOB 152308Z 1600/1706 12007KT 7000 -SHRA FEW003 SCT008 BKN015
       TEMPO 1600/1603 3000 -SHRA BR BCFG FEW000 SCT005 BKN008
       BECMG 1607/1609 4000 -SHRA BR BCFG FEW000 SCT005 BKN008
       TEMPO 1609/1615 2000 -SHRA BR BCFG FEW000 SCT001 BKN005
       BECMG 1612/1615 25004KT
       TEMPO 1615/1700 1500 SHRA BR BCFG FEW000 SCT001 BKN003
RJOT 152310Z 1600/1706 25008KT 9999 FEW020
       TEMPO 1600/1601 3000 SHRA BR BCFG FEW000 SCT002 BKN005
       TEMPO 1618/1700 3000 TSRA BR FEW001 SCT003 BKN005 FEW010CB
RJOA 152310Z 1600/1706 16005KT 1200 -SHRA BR BCFG FEW000 SCT002 BKN005
       BECMG 1600/1602 8000 NSW FEW010 SCT025
       BECMG 1608/1610 24006KT 4000 -SHRA BR BCFG FEW000 SCT003 BKN008
       TEMPO 1610/1618 1200 SHRA BR BCFG FEW000 SCT001 BKN003
       TEMPO 1618/1700 2000 -SHRA BR BCFG FEW000 SCT001 BKN003
       BECMG 1700/1703 8000 NSW FEW005 SCT015 BKN025


本日、第9回リモートブリーフィングを開催しました。
勉強会では、レーダーシステムについて講義がありました。

集合 10:00 解散    11:00

本日のフライトはありません。


    << 戻る || ホームページ || 最新の掲示板へ